Time;durP1;ratioP1;P1;durP2;ratioP2;P2;SDS_P1;SDS_P2;PMS_P1;PMS_P2;Temp;Humidity;BMP_temperature;BMP_pressure;BME280_temperature;BME280_humidity;BME280_pressure;Samples;Min_cycle;Max_cycle;Signal;HPM_P1;HPM_P2
2022/05/23 00:00:57;;;;;;;6.80;3.50;;;;;;;6.82;70.96;99679.95;213226;1276;140192;-61
2022/05/23 00:06:00;;;;;;;3.10;2.80;;;;;;;6.78;71.31;99680.23;213835;1276;139449;-61
2022/05/23 00:11:03;;;;;;;5.30;3.70;;;;;;;6.65;71.41;99683.17;213626;1276;139322;-61
2022/05/23 00:16:07;;;;;;;4.20;3.80;;;;;;;6.46;71.18;99682.64;214090;1275;139095;-62
2022/05/23 00:21:11;;;;;;;4.50;3.90;;;;;;;6.37;71.10;99687.20;213785;1276;141118;-62
2022/05/23 00:26:18;;;;;;;4.60;4.20;;;;;;;6.31;71.57;99689.77;213607;1276;140034;-62
2022/05/23 00:31:20;;;;;;;4.80;4.40;;;;;;;6.26;71.75;99690.77;213885;1277;139512;-61
2022/05/23 00:36:28;;;;;;;4.30;3.60;;;;;;;6.22;71.65;99689.58;216207;1275;139178;-61
2022/05/23 00:47:15;;;;;;;4.20;3.50;;;;;;;6.09;71.44;99689.30;214722;1274;139531;-62
2022/05/23 00:52:26;;;;;;;3.30;2.80;;;;;;;6.00;71.55;99691.02;215904;1275;140865;-62
2022/05/23 00:57:34;;;;;;;5.90;3.50;;;;;;;5.95;71.86;99691.35;214733;1276;140325;-62
2022/05/23 01:02:39;;;;;;;5.30;3.60;;;;;;;5.94;71.72;99692.20;215005;1276;140865;-61
2022/05/23 01:07:42;;;;;;;3.70;3.40;;;;;;;5.88;71.82;99689.67;214663;1277;140032;-62
2022/05/23 01:12:45;;;;;;;5.20;3.90;;;;;;;5.72;71.70;99691.19;213577;1276;161174;-61
2022/05/23 01:17:48;;;;;;;3.80;3.20;;;;;;;5.52;71.78;99696.14;213512;1276;149249;-61
2022/05/23 01:22:56;;;;;;;4.90;3.50;;;;;;;5.35;71.91;99694.59;214456;1276;140341;-62
2022/05/23 01:28:00;;;;;;;5.40;3.60;;;;;;;5.31;72.24;99699.00;213430;1277;140220;-61
2022/05/23 01:33:04;;;;;;;4.70;3.60;;;;;;;5.28;72.26;99697.13;213207;1276;140000;-60
2022/05/23 01:38:07;;;;;;;6.60;3.80;;;;;;;5.16;72.29;99697.03;214313;1275;141235;-62
2022/05/23 01:43:11;;;;;;;4.30;3.20;;;;;;;5.01;72.49;99700.90;213652;1276;139169;-61
2022/05/23 01:48:16;;;;;;;3.30;3.00;;;;;;;4.89;72.60;99707.81;213911;1275;139104;-61
2022/05/23 01:53:19;;;;;;;6.10;3.80;;;;;;;4.90;72.81;99706.84;213183;1275;143433;-62
2022/05/23 02:03:45;;;;;;;3.00;2.80;;;;;;;4.74;72.99;99689.93;213329;1277;139692;-62
2022/05/23 02:08:49;;;;;;;3.40;3.10;;;;;;;4.65;72.95;99686.98;213041;1277;158851;-61
2022/05/23 02:13:52;;;;;;;4.20;3.80;;;;;;;4.62;73.14;99685.65;213814;1277;139168;-61
2022/05/23 02:18:54;;;;;;;4.20;3.70;;;;;;;4.60;73.12;99683.77;214374;1276;161461;-61
2022/05/23 02:23:57;;;;;;;3.50;3.20;;;;;;;4.50;73.02;99681.80;215170;1277;139395;-62
2022/05/23 02:29:04;;;;;;;6.20;4.00;;;;;;;4.31;72.98;99677.73;215448;1277;141554;-64
2022/05/23 02:34:10;;;;;;;6.00;4.60;;;;;;;4.25;73.45;99675.77;215851;1276;141260;-62
2022/05/23 02:39:13;;;;;;;4.80;4.40;;;;;;;4.32;73.50;99670.59;214163;1276;140134;-63
2022/05/23 02:44:17;;;;;;;4.60;4.20;;;;;;;4.33;73.29;99668.59;215826;1277;140017;-62
2022/05/23 02:49:20;;;;;;;5.50;4.50;;;;;;;4.26;73.33;99669.84;214892;1276;139657;-62
2022/05/23 02:54:24;;;;;;;5.40;4.50;;;;;;;4.18;73.65;99669.14;216084;1274;139507;-62
2022/05/23 02:59:26;;;;;;;9.40;6.70;;;;;;;4.18;73.56;99672.11;215095;1277;139535;-62
2022/05/23 03:04:29;;;;;;;7.60;4.30;;;;;;;4.23;73.59;99667.80;214651;1277;139682;-62
2022/05/23 03:09:32;;;;;;;4.50;4.00;;;;;;;4.29;73.97;99664.36;213480;1276;140170;-61
2022/05/23 03:14:36;;;;;;;3.80;3.50;;;;;;;4.40;74.11;99661.56;214867;1275;138901;-61
2022/05/23 03:19:40;;;;;;;6.40;3.90;;;;;;;4.40;73.82;99656.45;213585;1277;141350;-63
2022/05/23 03:30:06;;;;;;;4.00;3.40;;;;;;;4.47;73.81;99661.36;213529;1277;142414;-60
2022/05/23 03:35:09;;;;;;;7.20;3.90;;;;;;;4.68;74.09;99660.41;213190;1277;141005;-62
2022/05/23 03:40:13;;;;;;;3.20;2.90;;;;;;;4.85;74.22;99654.91;213202;1274;140964;-62
2022/05/23 03:45:16;;;;;;;6.80;4.10;;;;;;;4.90;74.49;99657.75;213407;1277;141760;-61
2022/05/23 03:50:21;;;;;;;5.00;4.30;;;;;;;5.08;74.64;99660.77;213707;1276;140414;-62
2022/05/23 03:55:24;;;;;;;5.20;3.70;;;;;;;5.58;74.40;99657.87;213586;1277;141175;-62
2022/05/23 04:00:26;;;;;;;5.60;4.10;;;;;;;5.94;74.44;99659.48;213448;1277;140889;-63
2022/05/23 04:05:28;;;;;;;12.90;5.00;;;;;;;6.25;74.17;99661.65;214093;1274;140085;-62
2022/05/23 04:10:30;;;;;;;4.30;3.40;;;;;;;6.63;74.05;99660.89;213462;1277;140248;-64
2022/05/23 04:15:34;;;;;;;6.30;4.60;;;;;;;6.80;73.76;99664.67;213283;1277;232216;-63
2022/05/23 04:20:37;;;;;;;4.90;3.90;;;;;;;7.72;73.17;99667.45;213242;1276;140326;-63
2022/05/23 04:25:47;;;;;;;5.10;4.60;;;;;;;8.55;72.73;99664.33;214116;1277;139224;-62
2022/05/23 04:30:50;;;;;;;6.20;4.60;;;;;;;9.83;71.62;99665.93;213011;1277;140261;-62
2022/05/23 04:35:57;;;;;;;6.70;4.30;;;;;;;11.67;70.04;99671.02;214216;1276;139338;-63
2022/05/23 04:40:59;;;;;;;5.20;4.70;;;;;;;12.50;69.06;99673.40;215446;1274;140096;-63
2022/05/23 04:46:03;;;;;;;4.80;4.40;;;;;;;13.20;67.98;99672.27;214260;1275;140625;-63
2022/05/23 04:51:05;;;;;;;4.80;3.80;;;;;;;13.56;67.13;99683.14;215941;1274;140096;-62
2022/05/23 04:56:10;;;;;;;8.30;4.40;;;;;;;13.14;66.93;99684.95;215310;1276;139471;-63
2022/05/23 05:01:15;;;;;;;6.10;4.20;;;;;;;14.76;64.81;99678.54;214275;1276;140641;-62
2022/05/23 05:06:22;;;;;;;4.20;3.80;;;;;;;17.43;62.32;99672.46;214616;1277;140392;-64
2022/05/23 05:11:25;;;;;;;4.40;4.00;;;;;;;18.59;60.16;99663.20;214545;1274;140558;-63
2022/05/23 05:16:29;;;;;;;6.20;4.40;;;;;;;20.82;56.60;99658.48;214749;1276;140167;-63
2022/05/23 05:21:34;;;;;;;4.20;3.80;;;;;;;24.66;52.34;99657.67;213672;1277;140848;-60
2022/05/23 05:26:43;;;;;;;4.30;4.00;;;;;;;27.81;48.50;99659.63;214037;1276;140251;-64
2022/05/23 05:31:50;;;;;;;3.30;3.00;;;;;;;30.10;44.64;99665.45;213288;1275;230968;-62
2022/05/23 05:37:00;;;;;;;2.60;2.50;;;;;;;31.96;41.29;99667.69;213333;1277;140444;-62
2022/05/23 05:42:11;;;;;;;2.10;2.00;;;;;;;33.41;38.42;99666.23;213620;1274;141333;-62
2022/05/23 05:47:19;;;;;;;1.90;1.80;;;;;;;34.29;35.30;99671.46;213513;1276;140209;-62
2022/05/23 05:52:33;;;;;;;2.00;1.60;;;;;;;35.24;33.17;99676.61;213322;1275;141566;-63
2022/05/23 05:57:36;;;;;;;1.80;1.70;;;;;;;35.75;31.10;99678.02;213467;1275;140299;-63
2022/05/23 06:02:38;;;;;;;1.90;1.70;;;;;;;35.95;30.28;99680.27;214440;1274;141731;-64
2022/05/23 06:13:03;;;;;;;1.90;1.40;;;;;;;36.20;27.86;99685.26;214150;1277;140374;-64
2022/05/23 06:18:06;;;;;;;;;;;;;;;36.75;27.53;99693.98;213990;1277;141547;-63
2022/05/23 06:23:08;;;;;;;;;;;;;;;35.66;26.45;99701.98;215144;1274;126499;-62
2022/05/23 06:28:10;;;;;;;2.20;1.30;;;;;;;35.53;26.79;99705.16;216162;1274;127218;-62
2022/05/23 06:33:12;;;;;;;1.40;1.30;;;;;;;34.59;26.53;99712.95;216122;1274;140407;-64
2022/05/23 06:38:15;;;;;;;2.00;1.20;;;;;;;33.57;25.95;99710.52;214028;1275;141085;-65
2022/05/23 06:43:18;;;;;;;1.80;1.60;;;;;;;33.13;26.85;99711.03;216287;1274;140183;-64
2022/05/23 06:48:22;;;;;;;1.40;1.30;;;;;;;31.75;26.29;99719.41;216175;1274;150789;-66
2022/05/23 06:53:27;;;;;;;1.90;1.60;;;;;;;29.22;27.41;99714.44;215265;1275;139604;-62
2022/05/23 06:58:30;;;;;;;2.20;1.60;;;;;;;26.97;28.08;99706.06;213981;1275;140024;-62
2022/05/23 07:03:33;;;;;;;2.40;1.70;;;;;;;26.31;29.67;99705.64;214725;1274;139869;-62
2022/05/23 07:13:58;;;;;;;1.40;1.30;;;;;;;29.31;29.33;99690.42;213034;1274;141421;-61
2022/05/23 07:19:04;;;;;;;8.60;2.20;;;;;;;29.58;29.49;99688.02;213822;1275;140726;-61
2022/05/23 07:24:08;;;;;;;1.00;0.90;;;;;;;29.26;29.34;99686.71;213521;1277;140029;-64
2022/05/23 07:29:11;;;;;;;1.80;1.70;;;;;;;28.22;29.70;99687.34;213381;1275;140358;-62
2022/05/23 07:34:14;;;;;;;2.50;2.10;;;;;;;27.60;30.54;99683.58;213640;1274;140998;-61
2022/05/23 07:39:18;;;;;;;2.90;2.10;;;;;;;27.38;31.10;99675.54;213446;1274;140342;-60
2022/05/23 07:44:21;;;;;;;1.90;1.60;;;;;;;26.96;30.94;99677.48;213227;1274;140553;-62
2022/05/23 07:49:24;;;;;;;1.70;1.60;;;;;;;26.26;31.07;99671.92;213940;1275;139711;-64
2022/05/23 08:05:11;;;;;;;1.90;1.20;;;;;;;24.93;32.63;99672.20;213135;1276;139849;-62
2022/05/23 08:10:20;;;;;;;9.00;1.90;;;;;;;24.45;32.55;99667.45;214730;1274;219486;-62
2022/05/23 08:15:25;;;;;;;5.40;2.20;;;;;;;24.22;32.90;99654.96;214157;1275;139351;-61
2022/05/23 08:20:29;;;;;;;2.00;1.80;;;;;;;24.27;33.35;99647.11;212915;1274;139889;-63
2022/05/23 08:25:30;;;;;;;1.90;1.80;;;;;;;24.04;33.18;99654.63;215346;1274;139361;-63
2022/05/23 08:30:33;;;;;;;3.70;2.20;;;;;;;23.66;34.24;99653.63;213223;1275;139456;-63
2022/05/23 08:35:35;;;;;;;7.30;2.20;;;;;;;23.47;34.48;99654.26;215389;1274;140195;-63
2022/05/23 08:41:00;;;;;;;6.00;2.10;;;;;;;23.42;34.13;99649.45;216212;1274;139629;-62
2022/05/23 08:46:05;;;;;;;1.80;1.70;;;;;;;23.36;34.42;99640.15;214370;1277;140059;-61
2022/05/23 08:51:14;;;;;;;2.70;2.40;;;;;;;23.25;34.10;99628.25;215123;1274;139731;-61
2022/05/23 08:56:27;;;;;;;2.70;1.50;;;;;;;23.09;34.43;99617.00;214623;1276;139390;-61
2022/05/23 09:01:53;;;;;;;3.00;1.80;;;;;;;22.80;34.66;99615.41;213696;1276;140634;-62
2022/05/23 09:06:58;;;;;;;4.50;2.30;;;;;;;22.48;35.54;99607.86;213159;1276;139733;-62
2022/05/23 09:12:13;;;;;;;1.60;1.50;;;;;;;22.59;35.93;99611.25;214605;1274;140311;-62
2022/05/23 09:17:31;;;;;;;8.90;1.90;;;;;;;22.69;35.81;99608.98;214585;1274;139789;-63
2022/05/23 09:22:47;;;;;;;1.90;1.40;;;;;;;22.52;35.66;99604.71;213453;1274;145043;-63
2022/05/23 09:28:36;;;;;;;4.00;1.60;;;;;;;22.57;35.75;99601.00;213291;1277;141287;-63
2022/05/23 09:33:51;;;;;;;2.30;1.50;;;;;;;22.70;35.48;99600.58;213286;1274;141324;-63
2022/05/23 09:38:58;;;;;;;1.90;1.80;;;;;;;22.52;35.11;99602.77;213238;1277;140135;-65
2022/05/23 09:49:32;;;;;;;2.40;1.60;;;;;;;22.72;35.66;99589.81;213585;1275;139925;-63
2022/05/23 09:54:46;;;;;;;2.20;1.80;;;;;;;22.64;35.20;99584.55;213750;1274;141479;-63
2022/05/23 09:59:56;;;;;;;2.60;1.50;;;;;;;22.50;35.51;99574.41;214034;1274;140045;-62
2022/05/23 10:04:58;;;;;;;1.80;1.60;;;;;;;22.42;35.35;99572.07;214624;1276;139712;-64
2022/05/23 10:10:07;;;;;;;1.80;1.70;;;;;;;22.47;35.50;99574.77;215272;1274;140668;-62
2022/05/23 10:15:15;;;;;;;2.60;1.60;;;;;;;22.48;35.61;99559.08;213676;1274;140562;-62
2022/05/23 10:20:26;;;;;;;2.30;1.90;;;;;;;22.63;35.64;99552.65;215428;1274;140380;-64
2022/05/23 10:25:41;;;;;;;3.90;1.70;;;;;;;22.64;35.45;99557.77;216000;1274;139377;-64
2022/05/23 10:30:57;;;;;;;1.20;1.10;;;;;;;22.75;35.57;99550.17;216250;1274;140835;-63
2022/05/23 10:36:06;;;;;;;1.40;1.40;;;;;;;22.66;34.97;99553.36;214536;1274;140341;-61
2022/05/23 10:46:51;;;;;;;3.30;1.70;;;;;;;21.83;35.39;99544.82;214467;1276;140791;-64
2022/05/23 10:52:30;;;;;;;1.60;1.50;;;;;;;22.18;35.20;99545.47;214418;1276;140581;-64
2022/05/23 10:57:56;;;;;;;1.60;1.60;;;;;;;22.31;34.55;99539.11;214333;1276;140536;-65
2022/05/23 11:03:10;;;;;;;1.70;1.40;;;;;;;22.35;34.30;99532.45;214703;1277;139371;-63
2022/05/23 11:08:47;;;;;;;3.50;2.10;;;;;;;22.22;33.47;99530.83;214006;1277;744842;-65
2022/05/23 11:13:58;;;;;;;1.80;1.10;;;;;;;22.08;34.40;99524.48;215151;1276;139623;-64
2022/05/23 11:19:25;;;;;;;1.60;1.50;;;;;;;22.08;33.75;99519.21;212929;1277;139249;-64
2022/05/23 11:24:52;;;;;;;11.60;1.70;;;;;;;22.00;34.00;99516.44;213090;1277;139976;-65
2022/05/23 11:35:23;;;;;;;1.80;1.70;;;;;;;22.38;34.66;99518.26;214460;1277;140974;-64
2022/05/23 11:40:28;;;;;;;2.60;1.20;;;;;;;22.35;34.51;99519.81;214070;1277;231752;-62
2022/05/23 11:51:11;;;;;;;1.50;1.40;;;;;;;21.80;33.80;99506.73;213201;1277;140622;-62
2022/05/23 11:56:35;;;;;;;7.70;1.80;;;;;;;21.99;33.87;99502.64;214014;1277;140827;-63
2022/05/23 12:01:41;;;;;;;2.60;1.80;;;;;;;21.99;32.62;99500.89;213438;1276;139752;-63
2022/05/23 12:06:46;;;;;;;1.70;1.60;;;;;;;21.89;32.72;99490.10;214217;1276;139910;-62
2022/05/23 12:12:24;;;;;;;1.60;1.40;;;;;;;22.00;33.03;99480.53;213947;1277;141198;-62
2022/05/23 12:17:33;;;;;;;1.40;1.30;;;;;;;21.85;32.98;99482.14;214834;1275;139331;-64
2022/05/23 12:23:10;;;;;;;3.90;1.60;;;;;;;21.53;32.92;99473.91;215508;1277;140162;-64
2022/05/23 12:28:21;;;;;;;7.00;1.60;;;;;;;21.69;33.48;99470.91;215744;1276;139767;-64
2022/05/23 12:33:24;;;;;;;4.20;1.40;;;;;;;21.99;33.64;99462.03;215776;1277;141400;-62
2022/05/23 12:38:41;;;;;;;3.00;1.80;;;;;;;22.13;33.33;99457.73;215730;1277;140070;-66
2022/05/23 12:44:07;;;;;;;3.50;1.50;;;;;;;22.09;33.11;99453.38;215793;1276;140929;-64
2022/05/23 12:49:27;;;;;;;;;;;;;;;22.00;33.37;99448.44;213273;1277;139836;-63
2022/05/23 12:54:55;;;;;;;1.70;1.60;;;;;;;22.03;33.83;99434.39;216045;1276;126532;-63
2022/05/23 13:00:06;;;;;;;3.10;1.60;;;;;;;22.19;34.03;99428.39;213464;1277;140463;-63
2022/05/23 13:05:33;;;;;;;2.70;1.90;;;;;;;22.15;33.54;99424.00;214721;1274;140592;-63
2022/05/23 13:10:41;;;;;;;3.40;2.10;;;;;;;22.09;33.14;99415.17;213518;1277;141343;-64
2022/05/23 13:15:45;;;;;;;3.60;1.90;;;;;;;21.97;33.22;99404.17;213185;1277;139912;-63
2022/05/23 13:26:13;;;;;;;1.90;1.70;;;;;;;22.01;33.59;99390.11;212665;1277;139488;-63
2022/05/23 13:31:39;;;;;;;2.40;2.00;;;;;;;21.96;33.57;99388.08;214099;1276;139671;-66
2022/05/23 13:36:49;;;;;;;7.40;2.20;;;;;;;21.79;33.77;99379.20;214296;1277;139304;-64
2022/05/23 13:41:52;;;;;;;2.00;1.50;;;;;;;21.78;33.64;99374.89;213473;1277;139235;-62
2022/05/23 13:47:08;;;;;;;5.10;2.10;;;;;;;21.81;33.90;99369.73;213325;1277;140652;-62
2022/05/23 13:52:20;;;;;;;1.80;1.60;;;;;;;21.88;34.13;99368.94;212918;1277;139941;-62
2022/05/23 13:57:32;;;;;;;2.90;1.70;;;;;;;21.86;34.07;99358.63;213756;1277;140399;-63
2022/05/23 14:02:42;;;;;;;2.80;1.80;;;;;;;21.90;34.50;99360.27;214111;1276;139306;-62
2022/05/23 14:07:46;;;;;;;3.20;2.10;;;;;;;21.95;33.98;99356.75;214302;1275;228764;-62
2022/05/23 14:12:49;;;;;;;4.70;2.10;;;;;;;22.00;34.61;99359.56;214817;1277;139573;-64
2022/05/23 14:17:53;;;;;;;2.80;2.30;;;;;;;21.90;34.30;99359.88;213285;1277;140022;-62
2022/05/23 14:23:19;;;;;;;2.20;2.00;;;;;;;21.46;34.63;99350.08;215643;1277;141522;-62
2022/05/23 14:28:29;;;;;;;2.10;1.90;;;;;;;21.42;34.70;99346.55;214848;1277;140529;-61
2022/05/23 14:33:40;;;;;;;1.90;1.50;;;;;;;21.26;34.25;99339.20;215574;1277;139261;-62
2022/05/23 14:38:52;;;;;;;2.10;1.90;;;;;;;20.97;34.60;99332.55;215472;1277;140810;-62
2022/05/23 14:44:19;;;;;;;2.40;1.90;;;;;;;20.75;34.86;99332.36;215611;1277;139531;-61
2022/05/23 14:49:36;;;;;;;2.00;1.90;;;;;;;20.32;34.86;99327.69;212689;1277;140047;-62
2022/05/23 15:05:43;;;;;;;4.70;1.20;;;;;;;20.66;34.91;99317.76;212790;1277;140305;-62
2022/05/23 15:10:45;;;;;;;2.70;1.60;;;;;;;20.71;35.19;99315.67;213782;1277;140677;-63
2022/05/23 15:15:48;;;;;;;5.80;1.90;;;;;;;20.67;35.05;99311.62;212928;1277;139070;-61
2022/05/23 15:20:53;;;;;;;2.80;1.60;;;;;;;20.55;35.03;99313.05;213812;1277;139418;-62
2022/05/23 15:26:00;;;;;;;5.10;1.60;;;;;;;20.44;35.21;99308.10;213742;1277;140049;-62
2022/05/23 15:31:11;;;;;;;1.60;1.40;;;;;;;20.44;35.56;99308.00;212820;1277;139185;-62
2022/05/23 15:36:16;;;;;;;1.50;1.40;;;;;;;20.55;35.65;99311.32;213444;1277;139515;-65
2022/05/23 15:41:19;;;;;;;2.50;1.70;;;;;;;20.56;35.72;99306.14;212490;1277;141474;-63
2022/05/23 15:46:26;;;;;;;1.50;1.40;;;;;;;20.36;35.96;99302.33;213533;1277;139780;-62
2022/05/23 15:51:29;;;;;;;1.70;1.60;;;;;;;20.05;36.38;99295.16;213571;1277;140970;-61
2022/05/23 15:56:33;;;;;;;4.50;1.70;;;;;;;19.75;37.38;99296.49;214000;1276;139374;-63
2022/05/23 16:01:35;;;;;;;1.40;1.30;;;;;;;19.39;38.06;99296.55;214360;1277;140498;-62
2022/05/23 16:06:38;;;;;;;3.00;1.70;;;;;;;19.32;38.53;99287.27;214224;1277;139598;-62
2022/05/23 16:11:49;;;;;;;1.10;1.10;;;;;;;19.40;38.81;99281.45;215106;1275;140025;-62
2022/05/23 16:16:57;;;;;;;1.30;1.20;;;;;;;19.66;38.86;99275.70;214091;1277;140849;-62
2022/05/23 16:22:07;;;;;;;1.60;1.10;;;;;;;19.94;38.81;99272.77;215512;1277;142377;-62
2022/05/23 16:27:10;;;;;;;1.50;1.40;;;;;;;20.09;38.60;99268.14;215511;1277;141160;-62
2022/05/23 16:37:35;;;;;;;3.20;1.40;;;;;;;19.67;38.84;99272.05;215845;1277;140279;-64
2022/05/23 16:42:41;;;;;;;3.50;1.50;;;;;;;19.44;39.30;99269.52;215699;1277;141555;-66
2022/05/23 16:47:47;;;;;;;1.80;1.70;;;;;;;19.34;39.98;99270.00;213259;1277;140612;-63
2022/05/23 16:52:50;;;;;;;1.50;1.40;;;;;;;19.16;40.42;99268.79;213992;1277;140415;-63
2022/05/23 16:57:53;;;;;;;1.60;1.50;;;;;;;19.06;40.84;99265.95;213638;1277;140789;-61
2022/05/23 17:02:56;;;;;;;1.50;1.20;;;;;;;19.01;41.32;99267.08;212594;1277;140148;-63
2022/05/23 17:08:00;;;;;;;1.80;1.70;;;;;;;18.79;41.27;99271.90;213435;1277;140279;-65
2022/05/23 17:13:05;;;;;;;4.00;1.80;;;;;;;18.58;41.55;99274.09;213424;1277;140142;-64
2022/05/23 17:18:09;;;;;;;4.60;1.50;;;;;;;18.34;41.91;99271.02;214304;1277;142111;-60
2022/05/23 17:23:12;;;;;;;6.40;2.20;;;;;;;18.23;42.45;99273.13;213079;1277;140877;-62
2022/05/23 17:28:17;;;;;;;2.60;1.70;;;;;;;18.07;42.66;99267.82;213232;1277;141181;-64
2022/05/23 17:33:25;;;;;;;1.70;1.60;;;;;;;17.88;43.27;99261.06;212630;1277;140578;-64
2022/05/23 17:38:31;;;;;;;2.10;1.50;;;;;;;17.73;43.63;99259.24;213935;1277;139957;-61
2022/05/23 17:43:36;;;;;;;1.90;1.70;;;;;;;17.55;43.96;99255.08;213111;1277;141207;-65
2022/05/23 17:48:41;;;;;;;4.00;2.70;;;;;;;17.38;44.45;99249.88;214035;1277;139653;-65
2022/05/23 17:53:45;;;;;;;6.40;3.20;;;;;;;17.23;44.78;99245.13;215131;1277;230268;-63
2022/05/23 17:58:49;;;;;;;3.70;2.20;;;;;;;17.09;45.13;99246.45;214082;1278;140899;-63
2022/05/23 18:03:56;;;;;;;3.50;2.70;;;;;;;16.92;45.41;99240.41;213111;1277;140581;-63
2022/05/23 18:08:58;;;;;;;3.70;2.90;;;;;;;16.80;46.01;99243.52;213037;1277;140109;-62
2022/05/23 18:19:27;;;;;;;7.80;2.10;;;;;;;16.65;47.06;99238.09;213320;1277;141911;-64
2022/05/23 18:24:30;;;;;;;3.40;2.70;;;;;;;16.55;47.69;99237.68;213376;1277;141659;-64
2022/05/23 18:29:35;;;;;;;8.20;3.40;;;;;;;16.42;48.45;99231.11;215809;1277;141039;-63
2022/05/23 18:34:39;;;;;;;3.60;3.30;;;;;;;16.29;49.14;99231.19;214592;1277;142034;-62
2022/05/23 18:39:43;;;;;;;6.70;3.10;;;;;;;16.13;49.79;99231.23;215112;1277;140679;-65
2022/05/23 18:44:48;;;;;;;4.30;3.00;;;;;;;15.96;50.39;99231.42;214698;1277;140454;-65
2022/05/23 18:49:56;;;;;;;2.20;2.10;;;;;;;15.78;50.63;99227.66;215630;1276;140889;-65
2022/05/23 18:54:59;;;;;;;3.10;2.40;;;;;;;15.61;51.30;99226.65;215203;1276;142293;-65
2022/05/23 19:00:07;;;;;;;1.80;1.70;;;;;;;15.44;51.89;99234.81;213342;1277;141125;-64
2022/05/23 19:05:10;;;;;;;2.40;2.30;;;;;;;15.26;52.30;99239.54;213956;1276;141800;-66
2022/05/23 19:10:17;;;;;;;1.70;1.60;;;;;;;15.07;52.91;99240.16;214059;1277;140119;-63
2022/05/23 19:15:24;;;;;;;5.90;2.60;;;;;;;14.89;53.22;99238.48;214454;1277;140765;-64
2022/05/23 19:20:28;;;;;;;4.10;2.00;;;;;;;14.65;53.60;99242.05;214195;1277;141145;-63
2022/05/23 19:25:33;;;;;;;4.00;2.60;;;;;;;14.49;54.04;99244.56;212918;1277;141718;-65
2022/05/23 19:30:37;;;;;;;2.60;2.00;;;;;;;14.32;54.35;99247.27;214466;1277;162219;-62
2022/05/23 19:35:41;;;;;;;2.60;2.40;;;;;;;14.15;54.82;99256.81;213259;1277;140235;-61
2022/05/23 19:40:45;;;;;;;2.90;2.60;;;;;;;13.95;55.15;99257.86;213044;1277;141266;-63
2022/05/23 19:45:55;;;;;;;4.60;2.70;;;;;;;13.67;55.74;99248.52;213606;1277;140697;-63
2022/05/23 19:50:59;;;;;;;2.90;2.50;;;;;;;13.52;56.34;99237.83;212833;1277;141951;-62
2022/05/23 19:56:03;;;;;;;6.60;3.50;;;;;;;13.46;56.55;99246.55;213715;1277;142319;-63
2022/05/23 20:01:28;;;;;;;8.40;2.80;;;;;;;13.43;56.44;99249.98;213448;1277;140335;-63
2022/05/23 20:07:01;;;;;;;4.90;2.70;;;;;;;13.41;57.00;99249.98;213539;1277;139769;-62
2022/05/23 20:11:57;;;;;;;4.50;2.90;;;;;;;13.37;56.96;99252.66;214589;1277;139936;-64
2022/05/23 20:17:01;;;;;;;3.80;3.00;;;;;;;13.31;57.22;99256.06;214802;1277;139716;-63
2022/05/23 20:22:04;;;;;;;5.10;2.50;;;;;;;13.23;57.52;99256.02;215964;1276;139801;-61
2022/05/23 20:27:06;;;;;;;4.50;3.20;;;;;;;13.13;57.44;99249.13;215706;1276;139424;-64
2022/05/23 20:32:09;;;;;;;4.10;2.90;;;;;;;13.02;57.60;99243.95;215833;1277;142233;-66
2022/05/23 20:37:22;;;;;;;3.10;2.90;;;;;;;12.84;57.99;99240.29;215974;1277;140735;-66
2022/05/23 20:42:25;;;;;;;3.50;3.10;;;;;;;12.66;57.93;99246.80;215722;1276;141685;-63
2022/05/23 20:47:33;;;;;;;5.60;3.90;;;;;;;12.61;58.15;99255.73;214413;1277;142247;-63
2022/05/23 20:52:38;;;;;;;3.90;3.60;;;;;;;12.59;58.88;99263.86;213993;1277;141110;-62
2022/05/23 20:57:47;;;;;;;3.50;3.10;;;;;;;12.56;59.27;99268.28;213227;1277;140775;-61
2022/05/23 21:02:52;;;;;;;4.20;3.20;;;;;;;12.48;59.45;99265.05;214253;1277;140798;-62
2022/05/23 21:08:01;;;;;;;3.60;3.10;;;;;;;12.33;59.41;99255.06;213595;1277;140717;-62
2022/05/23 21:13:07;;;;;;;3.90;3.60;;;;;;;12.17;59.53;99252.82;214923;1276;140078;-62
2022/05/23 21:18:11;;;;;;;4.30;3.90;;;;;;;12.01;59.74;99242.10;214165;1277;140841;-62
2022/05/23 21:23:13;;;;;;;3.80;3.40;;;;;;;11.87;60.20;99241.48;213846;1276;141479;-62
2022/05/23 21:28:16;;;;;;;7.60;4.10;;;;;;;11.77;60.46;99244.59;213109;1277;142141;-63
2022/05/23 21:33:18;;;;;;;5.20;4.00;;;;;;;11.63;60.47;99245.41;213375;1277;140835;-61
2022/05/23 21:38:21;;;;;;;6.20;4.40;;;;;;;11.55;60.96;99239.36;213826;1277;141040;-62
2022/05/23 21:48:46;;;;;;;5.50;4.20;;;;;;;11.46;61.71;99245.57;213332;1277;141259;-61
2022/05/23 21:53:48;;;;;;;9.10;4.90;;;;;;;11.46;61.81;99253.09;213162;1277;140675;-62
2022/05/23 21:58:51;;;;;;;7.20;4.00;;;;;;;11.45;61.82;99246.30;213316;1277;141747;-62
2022/05/23 22:03:54;;;;;;;8.00;5.00;;;;;;;11.47;61.95;99238.20;214752;1276;140311;-63
2022/05/23 22:08:58;;;;;;;6.60;5.20;;;;;;;11.44;62.00;99227.02;214581;1277;140455;-63
2022/05/23 22:14:02;;;;;;;6.80;5.20;;;;;;;11.38;62.27;99220.88;213922;1276;140229;-63
2022/05/23 22:19:10;;;;;;;7.10;5.40;;;;;;;11.34;62.26;99219.55;215972;1276;139986;-63
2022/05/23 22:24:14;;;;;;;9.30;5.50;;;;;;;11.31;62.44;99217.70;214292;1276;140546;-63
2022/05/23 22:29:17;;;;;;;5.00;4.50;;;;;;;11.26;62.45;99218.90;215066;1277;140009;-64
2022/05/23 22:34:21;;;;;;;11.00;5.10;;;;;;;11.21;62.59;99216.23;215682;1277;140033;-68
2022/05/23 22:39:24;;;;;;;6.50;5.70;;;;;;;11.25;62.59;99214.41;215504;1277;140808;-63
2022/05/23 22:44:28;;;;;;;8.00;4.90;;;;;;;11.29;62.72;99217.02;215706;1277;140587;-63
2022/05/23 22:49:32;;;;;;;5.40;4.60;;;;;;;11.33;62.76;99207.79;214999;1277;139981;-64
2022/05/23 22:54:38;;;;;;;5.60;4.40;;;;;;;11.31;62.91;99205.07;213974;1277;140770;-64
2022/05/23 22:59:41;;;;;;;7.50;6.20;;;;;;;11.27;63.01;99208.19;213827;1277;140214;-65
2022/05/23 23:04:48;;;;;;;6.00;5.40;;;;;;;11.16;62.97;99199.32;214035;1277;141479;-66
2022/05/23 23:09:51;;;;;;;5.20;4.60;;;;;;;11.04;63.19;99198.39;213567;1277;687559;-62
2022/05/23 23:14:54;;;;;;;6.70;4.40;;;;;;;11.02;63.27;99196.02;214194;1277;140107;-61
2022/05/23 23:19:57;;;;;;;6.20;5.20;;;;;;;10.90;63.57;99188.54;214617;1277;141412;-62
2022/05/23 23:25:00;;;;;;;7.10;5.30;;;;;;;10.84;63.96;99196.66;213108;1277;140805;-61
2022/05/23 23:30:02;;;;;;;5.70;4.70;;;;;;;10.78;64.20;99191.38;213112;1277;232279;-62
2022/05/23 23:40:34;;;;;;;7.30;5.60;;;;;;;10.65;64.83;99193.48;213619;1277;141998;-62
2022/05/23 23:45:38;;;;;;;8.40;5.80;;;;;;;10.60;65.00;99192.67;213999;1277;140437;-62
2022/05/23 23:50:41;;;;;;;8.00;4.50;;;;;;;10.61;65.31;99192.89;213050;1277;162219;-62
2022/05/23 23:55:48;;;;;;;8.90;5.70;;;;;;;10.53;65.48;99186.48;214100;1277;140553;-62
